sensor_id;sensor_type;location;lat;lon;timestamp;P1;durP1;ratioP1;P2;durP2;ratioP2
11839;SDS011;5979;50.800;4.904;2022-11-30T00:00:13;31.55;;;16.25;;
11839;SDS011;5979;50.800;4.904;2022-11-30T00:02:40;30.65;;;16.48;;
11839;SDS011;5979;50.800;4.904;2022-11-30T00:05:06;30.95;;;17.08;;
11839;SDS011;5979;50.800;4.904;2022-11-30T00:07:32;33.95;;;16.52;;
11839;SDS011;5979;50.800;4.904;2022-11-30T00:09:58;27.48;;;15.93;;
11839;SDS011;5979;50.800;4.904;2022-11-30T00:12:23;33.50;;;16.85;;
11839;SDS011;5979;50.800;4.904;2022-11-30T00:14:49;27.58;;;15.98;;
11839;SDS011;5979;50.800;4.904;2022-11-30T00:17:15;21.30;;;14.57;;
11839;SDS011;5979;50.800;4.904;2022-11-30T00:19:41;30.10;;;14.90;;
11839;SDS011;5979;50.800;4.904;2022-11-30T00:22:07;24.33;;;14.70;;
11839;SDS011;5979;50.800;4.904;2022-11-30T00:24:33;31.92;;;14.60;;
11839;SDS011;5979;50.800;4.904;2022-11-30T00:26:58;20.65;;;13.80;;
11839;SDS011;5979;50.800;4.904;2022-11-30T00:29:24;24.65;;;15.27;;
11839;SDS011;5979;50.800;4.904;2022-11-30T00:31:49;20.80;;;13.90;;
11839;SDS011;5979;50.800;4.904;2022-11-30T00:34:15;23.70;;;14.60;;
11839;SDS011;5979;50.800;4.904;2022-11-30T00:36:41;25.65;;;13.75;;
11839;SDS011;5979;50.800;4.904;2022-11-30T00:39:06;30.33;;;15.70;;
11839;SDS011;5979;50.800;4.904;2022-11-30T00:41:32;24.13;;;15.02;;
11839;SDS011;5979;50.800;4.904;2022-11-30T00:43:58;27.00;;;14.88;;
11839;SDS011;5979;50.800;4.904;2022-11-30T00:46:23;28.65;;;14.70;;
11839;SDS011;5979;50.800;4.904;2022-11-30T00:48:49;24.60;;;14.70;;
11839;SDS011;5979;50.800;4.904;2022-11-30T00:51:15;23.85;;;15.77;;
11839;SDS011;5979;50.800;4.904;2022-11-30T00:53:40;23.88;;;14.82;;
11839;SDS011;5979;50.800;4.904;2022-11-30T00:56:07;21.70;;;15.02;;
11839;SDS011;5979;50.800;4.904;2022-11-30T00:58:33;24.48;;;14.63;;
11839;SDS011;5979;50.800;4.904;2022-11-30T01:00:59;25.15;;;14.40;;
11839;SDS011;5979;50.800;4.904;2022-11-30T01:03:25;24.98;;;14.45;;
11839;SDS011;5979;50.800;4.904;2022-11-30T01:05:50;26.92;;;16.10;;
11839;SDS011;5979;50.800;4.904;2022-11-30T01:08:16;25.83;;;15.48;;
11839;SDS011;5979;50.800;4.904;2022-11-30T01:10:42;25.08;;;14.18;;
11839;SDS011;5979;50.800;4.904;2022-11-30T01:13:09;26.20;;;15.57;;
11839;SDS011;5979;50.800;4.904;2022-11-30T01:15:41;25.38;;;16.60;;
11839;SDS011;5979;50.800;4.904;2022-11-30T01:18:08;23.90;;;15.48;;
11839;SDS011;5979;50.800;4.904;2022-11-30T01:20:34;22.35;;;14.65;;
11839;SDS011;5979;50.800;4.904;2022-11-30T01:23:05;23.20;;;14.38;;
11839;SDS011;5979;50.800;4.904;2022-11-30T01:25:30;29.10;;;15.52;;
11839;SDS011;5979;50.800;4.904;2022-11-30T01:27:56;26.67;;;16.48;;
11839;SDS011;5979;50.800;4.904;2022-11-30T01:30:22;28.65;;;15.63;;
11839;SDS011;5979;50.800;4.904;2022-11-30T01:32:47;26.73;;;15.43;;
11839;SDS011;5979;50.800;4.904;2022-11-30T01:35:13;24.67;;;15.63;;
11839;SDS011;5979;50.800;4.904;2022-11-30T01:37:39;32.83;;;15.70;;
11839;SDS011;5979;50.800;4.904;2022-11-30T01:40:05;28.35;;;16.10;;
11839;SDS011;5979;50.800;4.904;2022-11-30T01:42:31;30.30;;;15.70;;
11839;SDS011;5979;50.800;4.904;2022-11-30T01:45:00;31.77;;;16.85;;
11839;SDS011;5979;50.800;4.904;2022-11-30T01:47:36;32.00;;;17.27;;
11839;SDS011;5979;50.800;4.904;2022-11-30T01:50:17;30.67;;;16.25;;
11839;SDS011;5979;50.800;4.904;2022-11-30T01:52:56;30.50;;;16.33;;
11839;SDS011;5979;50.800;4.904;2022-11-30T01:55:23;29.55;;;16.23;;
11839;SDS011;5979;50.800;4.904;2022-11-30T01:58:12;34.22;;;16.60;;
11839;SDS011;5979;50.800;4.904;2022-11-30T02:00:43;33.67;;;17.17;;
11839;SDS011;5979;50.800;4.904;2022-11-30T02:03:15;31.20;;;16.65;;
11839;SDS011;5979;50.800;4.904;2022-11-30T02:06:02;35.40;;;16.35;;
11839;SDS011;5979;50.800;4.904;2022-11-30T02:08:27;31.17;;;16.65;;
11839;SDS011;5979;50.800;4.904;2022-11-30T02:10:57;29.92;;;15.25;;
11839;SDS011;5979;50.800;4.904;2022-11-30T02:13:29;34.80;;;16.92;;
11839;SDS011;5979;50.800;4.904;2022-11-30T02:22:01;32.40;;;16.27;;
11839;SDS011;5979;50.800;4.904;2022-11-30T02:27:21;29.25;;;14.07;;
11839;SDS011;5979;50.800;4.904;2022-11-30T02:30:10;23.23;;;14.00;;
11839;SDS011;5979;50.800;4.904;2022-11-30T02:32:44;22.08;;;13.23;;
11839;SDS011;5979;50.800;4.904;2022-11-30T02:35:28;31.48;;;15.30;;
11839;SDS011;5979;50.800;4.904;2022-11-30T02:37:56;28.83;;;15.35;;
11839;SDS011;5979;50.800;4.904;2022-11-30T02:40:23;29.20;;;15.02;;
11839;SDS011;5979;50.800;4.904;2022-11-30T02:42:49;32.50;;;16.42;;
11839;SDS011;5979;50.800;4.904;2022-11-30T02:45:21;32.30;;;15.27;;
11839;SDS011;5979;50.800;4.904;2022-11-30T02:48:09;25.42;;;14.40;;
11839;SDS011;5979;50.800;4.904;2022-11-30T02:50:40;23.90;;;13.32;;
11839;SDS011;5979;50.800;4.904;2022-11-30T02:53:09;27.98;;;14.52;;
11839;SDS011;5979;50.800;4.904;2022-11-30T02:55:35;25.38;;;14.60;;
11839;SDS011;5979;50.800;4.904;2022-11-30T02:58:01;28.80;;;14.57;;
11839;SDS011;5979;50.800;4.904;2022-11-30T03:00:27;22.63;;;13.88;;
11839;SDS011;5979;50.800;4.904;2022-11-30T03:02:52;31.42;;;15.25;;
11839;SDS011;5979;50.800;4.904;2022-11-30T03:05:19;24.83;;;14.65;;
11839;SDS011;5979;50.800;4.904;2022-11-30T03:07:44;26.83;;;13.68;;
11839;SDS011;5979;50.800;4.904;2022-11-30T03:10:10;25.05;;;13.93;;
11839;SDS011;5979;50.800;4.904;2022-11-30T03:12:36;24.67;;;13.77;;
11839;SDS011;5979;50.800;4.904;2022-11-30T03:15:02;24.85;;;13.15;;
11839;SDS011;5979;50.800;4.904;2022-11-30T03:17:28;22.13;;;13.05;;
11839;SDS011;5979;50.800;4.904;2022-11-30T03:19:54;22.65;;;13.05;;
11839;SDS011;5979;50.800;4.904;2022-11-30T03:22:20;24.42;;;14.30;;
11839;SDS011;5979;50.800;4.904;2022-11-30T03:24:45;25.42;;;14.98;;
11839;SDS011;5979;50.800;4.904;2022-11-30T03:27:11;28.70;;;14.73;;
11839;SDS011;5979;50.800;4.904;2022-11-30T03:29:37;25.40;;;14.43;;
11839;SDS011;5979;50.800;4.904;2022-11-30T03:32:03;23.23;;;13.20;;
11839;SDS011;5979;50.800;4.904;2022-11-30T03:34:29;24.15;;;14.10;;
11839;SDS011;5979;50.800;4.904;2022-11-30T03:36:55;23.08;;;13.63;;
11839;SDS011;5979;50.800;4.904;2022-11-30T03:39:21;23.27;;;13.65;;
11839;SDS011;5979;50.800;4.904;2022-11-30T03:41:48;26.40;;;15.18;;
11839;SDS011;5979;50.800;4.904;2022-11-30T03:44:14;26.77;;;14.15;;
11839;SDS011;5979;50.800;4.904;2022-11-30T03:46:40;28.05;;;14.65;;
11839;SDS011;5979;50.800;4.904;2022-11-30T03:49:05;25.13;;;14.20;;
11839;SDS011;5979;50.800;4.904;2022-11-30T03:51:31;26.98;;;15.30;;
11839;SDS011;5979;50.800;4.904;2022-11-30T03:53:57;26.85;;;15.82;;
11839;SDS011;5979;50.800;4.904;2022-11-30T03:56:22;28.92;;;15.80;;
11839;SDS011;5979;50.800;4.904;2022-11-30T03:58:48;31.23;;;14.38;;
11839;SDS011;5979;50.800;4.904;2022-11-30T04:01:15;29.92;;;16.30;;
11839;SDS011;5979;50.800;4.904;2022-11-30T04:03:43;28.15;;;15.68;;
11839;SDS011;5979;50.800;4.904;2022-11-30T04:06:10;28.48;;;14.77;;
11839;SDS011;5979;50.800;4.904;2022-11-30T04:08:36;25.27;;;14.23;;
11839;SDS011;5979;50.800;4.904;2022-11-30T04:11:03;28.73;;;15.40;;
11839;SDS011;5979;50.800;4.904;2022-11-30T04:13:30;24.65;;;15.38;;
11839;SDS011;5979;50.800;4.904;2022-11-30T04:15:56;33.90;;;16.35;;
11839;SDS011;5979;50.800;4.904;2022-11-30T04:18:23;32.20;;;14.57;;
11839;SDS011;5979;50.800;4.904;2022-11-30T04:20:50;30.73;;;15.20;;
11839;SDS011;5979;50.800;4.904;2022-11-30T04:23:17;26.10;;;15.10;;
11839;SDS011;5979;50.800;4.904;2022-11-30T04:25:43;26.58;;;15.00;;
11839;SDS011;5979;50.800;4.904;2022-11-30T04:28:09;31.08;;;16.08;;
11839;SDS011;5979;50.800;4.904;2022-11-30T04:30:35;28.05;;;14.70;;
11839;SDS011;5979;50.800;4.904;2022-11-30T04:33:02;28.50;;;15.45;;
11839;SDS011;5979;50.800;4.904;2022-11-30T04:35:28;32.05;;;15.65;;
11839;SDS011;5979;50.800;4.904;2022-11-30T04:37:53;28.52;;;14.93;;
11839;SDS011;5979;50.800;4.904;2022-11-30T04:40:19;29.48;;;16.05;;
11839;SDS011;5979;50.800;4.904;2022-11-30T04:42:45;28.05;;;14.85;;
11839;SDS011;5979;50.800;4.904;2022-11-30T04:45:11;26.75;;;15.60;;
11839;SDS011;5979;50.800;4.904;2022-11-30T04:47:38;29.05;;;15.60;;
11839;SDS011;5979;50.800;4.904;2022-11-30T04:50:04;29.10;;;15.73;;
11839;SDS011;5979;50.800;4.904;2022-11-30T04:52:31;28.67;;;15.70;;
11839;SDS011;5979;50.800;4.904;2022-11-30T04:54:57;30.15;;;15.55;;
11839;SDS011;5979;50.800;4.904;2022-11-30T04:57:23;31.95;;;16.98;;
11839;SDS011;5979;50.800;4.904;2022-11-30T04:59:49;28.30;;;15.70;;
11839;SDS011;5979;50.800;4.904;2022-11-30T05:02:15;32.75;;;17.23;;
11839;SDS011;5979;50.800;4.904;2022-11-30T05:04:40;37.92;;;17.77;;
11839;SDS011;5979;50.800;4.904;2022-11-30T05:07:06;31.50;;;17.35;;
11839;SDS011;5979;50.800;4.904;2022-11-30T05:09:32;31.83;;;16.70;;
11839;SDS011;5979;50.800;4.904;2022-11-30T05:11:58;32.17;;;16.65;;
11839;SDS011;5979;50.800;4.904;2022-11-30T05:14:23;30.80;;;16.38;;
11839;SDS011;5979;50.800;4.904;2022-11-30T05:16:49;30.63;;;16.65;;
11839;SDS011;5979;50.800;4.904;2022-11-30T05:19:15;32.05;;;17.20;;
11839;SDS011;5979;50.800;4.904;2022-11-30T05:21:41;31.48;;;16.95;;
11839;SDS011;5979;50.800;4.904;2022-11-30T05:24:07;33.95;;;17.48;;
11839;SDS011;5979;50.800;4.904;2022-11-30T05:26:36;36.53;;;17.50;;
11839;SDS011;5979;50.800;4.904;2022-11-30T05:29:03;33.22;;;17.92;;
11839;SDS011;5979;50.800;4.904;2022-11-30T05:31:29;40.35;;;18.15;;
11839;SDS011;5979;50.800;4.904;2022-11-30T05:33:55;34.83;;;18.85;;
11839;SDS011;5979;50.800;4.904;2022-11-30T05:36:21;35.17;;;18.75;;
11839;SDS011;5979;50.800;4.904;2022-11-30T05:38:47;31.52;;;17.45;;
11839;SDS011;5979;50.800;4.904;2022-11-30T05:41:12;36.00;;;18.80;;
11839;SDS011;5979;50.800;4.904;2022-11-30T05:43:38;35.67;;;18.40;;
11839;SDS011;5979;50.800;4.904;2022-11-30T05:46:05;35.00;;;17.45;;
11839;SDS011;5979;50.800;4.904;2022-11-30T05:48:32;32.65;;;17.67;;
11839;SDS011;5979;50.800;4.904;2022-11-30T05:51:08;35.72;;;18.15;;
11839;SDS011;5979;50.800;4.904;2022-11-30T05:53:37;35.38;;;18.38;;
11839;SDS011;5979;50.800;4.904;2022-11-30T05:56:04;31.02;;;17.42;;
11839;SDS011;5979;50.800;4.904;2022-11-30T05:58:31;40.17;;;19.00;;
11839;SDS011;5979;50.800;4.904;2022-11-30T06:00:57;37.47;;;19.15;;
11839;SDS011;5979;50.800;4.904;2022-11-30T06:03:23;38.85;;;19.60;;
11839;SDS011;5979;50.800;4.904;2022-11-30T06:05:51;37.28;;;18.55;;
11839;SDS011;5979;50.800;4.904;2022-11-30T06:08:17;38.58;;;19.52;;
11839;SDS011;5979;50.800;4.904;2022-11-30T06:10:43;37.25;;;17.85;;
11839;SDS011;5979;50.800;4.904;2022-11-30T06:13:09;36.88;;;19.02;;
11839;SDS011;5979;50.800;4.904;2022-11-30T06:15:38;33.20;;;17.70;;
11839;SDS011;5979;50.800;4.904;2022-11-30T06:18:04;33.38;;;17.90;;
11839;SDS011;5979;50.800;4.904;2022-11-30T06:20:30;44.65;;;19.17;;
11839;SDS011;5979;50.800;4.904;2022-11-30T06:22:57;34.72;;;19.10;;
11839;SDS011;5979;50.800;4.904;2022-11-30T06:25:23;35.22;;;18.73;;
11839;SDS011;5979;50.800;4.904;2022-11-30T06:27:49;45.58;;;21.05;;
11839;SDS011;5979;50.800;4.904;2022-11-30T06:30:15;42.63;;;20.25;;
11839;SDS011;5979;50.800;4.904;2022-11-30T06:32:45;40.55;;;20.58;;
11839;SDS011;5979;50.800;4.904;2022-11-30T06:35:11;37.10;;;19.80;;
11839;SDS011;5979;50.800;4.904;2022-11-30T06:37:37;39.83;;;19.95;;
11839;SDS011;5979;50.800;4.904;2022-11-30T06:40:03;40.65;;;19.13;;
11839;SDS011;5979;50.800;4.904;2022-11-30T06:42:29;33.75;;;18.45;;
11839;SDS011;5979;50.800;4.904;2022-11-30T06:44:56;37.67;;;17.52;;
11839;SDS011;5979;50.800;4.904;2022-11-30T06:47:22;33.53;;;17.35;;
11839;SDS011;5979;50.800;4.904;2022-11-30T06:49:48;35.15;;;19.10;;
11839;SDS011;5979;50.800;4.904;2022-11-30T06:52:14;37.63;;;18.10;;
11839;SDS011;5979;50.800;4.904;2022-11-30T06:54:39;37.95;;;17.20;;
11839;SDS011;5979;50.800;4.904;2022-11-30T06:57:05;35.47;;;16.98;;
11839;SDS011;5979;50.800;4.904;2022-11-30T06:59:31;37.50;;;18.80;;
11839;SDS011;5979;50.800;4.904;2022-11-30T07:01:56;38.58;;;17.60;;
11839;SDS011;5979;50.800;4.904;2022-11-30T07:04:22;39.22;;;18.48;;
11839;SDS011;5979;50.800;4.904;2022-11-30T07:06:47;36.55;;;18.30;;
11839;SDS011;5979;50.800;4.904;2022-11-30T07:09:13;38.67;;;19.55;;
11839;SDS011;5979;50.800;4.904;2022-11-30T07:11:39;37.47;;;17.83;;
11839;SDS011;5979;50.800;4.904;2022-11-30T07:14:05;37.33;;;17.02;;
11839;SDS011;5979;50.800;4.904;2022-11-30T07:16:30;42.47;;;18.65;;
11839;SDS011;5979;50.800;4.904;2022-11-30T07:18:56;41.08;;;18.25;;
11839;SDS011;5979;50.800;4.904;2022-11-30T07:21:22;39.22;;;18.33;;
11839;SDS011;5979;50.800;4.904;2022-11-30T07:23:48;38.70;;;17.25;;
11839;SDS011;5979;50.800;4.904;2022-11-30T07:26:32;39.33;;;19.52;;
11839;SDS011;5979;50.800;4.904;2022-11-30T07:28:57;40.00;;;18.58;;
11839;SDS011;5979;50.800;4.904;2022-11-30T07:31:24;36.38;;;18.60;;
11839;SDS011;5979;50.800;4.904;2022-11-30T07:33:55;43.95;;;19.38;;
11839;SDS011;5979;50.800;4.904;2022-11-30T07:36:22;47.95;;;19.00;;
11839;SDS011;5979;50.800;4.904;2022-11-30T07:38:50;40.33;;;19.05;;
11839;SDS011;5979;50.800;4.904;2022-11-30T07:41:16;35.40;;;17.17;;
11839;SDS011;5979;50.800;4.904;2022-11-30T07:43:42;38.30;;;18.40;;
11839;SDS011;5979;50.800;4.904;2022-11-30T07:46:13;37.65;;;18.23;;
11839;SDS011;5979;50.800;4.904;2022-11-30T07:48:39;36.17;;;17.95;;
11839;SDS011;5979;50.800;4.904;2022-11-30T07:51:08;35.85;;;17.90;;
11839;SDS011;5979;50.800;4.904;2022-11-30T07:53:37;35.90;;;17.95;;
11839;SDS011;5979;50.800;4.904;2022-11-30T07:56:04;35.00;;;18.00;;
11839;SDS011;5979;50.800;4.904;2022-11-30T07:58:31;33.63;;;16.90;;
11839;SDS011;5979;50.800;4.904;2022-11-30T08:01:00;39.65;;;18.77;;
11839;SDS011;5979;50.800;4.904;2022-11-30T08:03:27;34.90;;;17.50;;
11839;SDS011;5979;50.800;4.904;2022-11-30T08:05:58;30.85;;;16.38;;
11839;SDS011;5979;50.800;4.904;2022-11-30T08:08:27;31.33;;;16.88;;
11839;SDS011;5979;50.800;4.904;2022-11-30T08:10:57;36.28;;;18.23;;
11839;SDS011;5979;50.800;4.904;2022-11-30T08:13:23;35.58;;;17.75;;
11839;SDS011;5979;50.800;4.904;2022-11-30T08:15:49;35.95;;;17.08;;
11839;SDS011;5979;50.800;4.904;2022-11-30T08:18:15;30.42;;;17.33;;
11839;SDS011;5979;50.800;4.904;2022-11-30T08:20:41;34.83;;;18.48;;
11839;SDS011;5979;50.800;4.904;2022-11-30T08:23:07;28.02;;;16.63;;
11839;SDS011;5979;50.800;4.904;2022-11-30T08:25:33;29.17;;;17.45;;
11839;SDS011;5979;50.800;4.904;2022-11-30T08:27:59;27.13;;;15.77;;
11839;SDS011;5979;50.800;4.904;2022-11-30T08:30:25;28.00;;;16.02;;
11839;SDS011;5979;50.800;4.904;2022-11-30T08:32:51;31.65;;;17.13;;
11839;SDS011;5979;50.800;4.904;2022-11-30T08:35:17;27.83;;;16.50;;
11839;SDS011;5979;50.800;4.904;2022-11-30T08:37:42;26.77;;;16.27;;
11839;SDS011;5979;50.800;4.904;2022-11-30T08:40:08;26.95;;;15.75;;
11839;SDS011;5979;50.800;4.904;2022-11-30T08:42:34;30.65;;;15.75;;
11839;SDS011;5979;50.800;4.904;2022-11-30T08:45:00;24.27;;;15.13;;
11839;SDS011;5979;50.800;4.904;2022-11-30T08:47:27;26.33;;;15.15;;
11839;SDS011;5979;50.800;4.904;2022-11-30T08:49:54;27.58;;;15.88;;
11839;SDS011;5979;50.800;4.904;2022-11-30T08:52:20;26.30;;;15.32;;
11839;SDS011;5979;50.800;4.904;2022-11-30T08:54:46;28.17;;;15.77;;
11839;SDS011;5979;50.800;4.904;2022-11-30T08:57:12;27.77;;;15.38;;
11839;SDS011;5979;50.800;4.904;2022-11-30T08:59:39;27.13;;;15.38;;
11839;SDS011;5979;50.800;4.904;2022-11-30T09:02:05;30.20;;;16.95;;
11839;SDS011;5979;50.800;4.904;2022-11-30T09:04:32;24.98;;;15.68;;
11839;SDS011;5979;50.800;4.904;2022-11-30T09:06:58;25.65;;;15.40;;
11839;SDS011;5979;50.800;4.904;2022-11-30T09:09:24;25.55;;;16.08;;
11839;SDS011;5979;50.800;4.904;2022-11-30T09:11:50;29.05;;;17.40;;
11839;SDS011;5979;50.800;4.904;2022-11-30T09:14:16;26.83;;;15.77;;
11839;SDS011;5979;50.800;4.904;2022-11-30T09:16:41;26.52;;;15.25;;
11839;SDS011;5979;50.800;4.904;2022-11-30T09:19:07;24.98;;;15.57;;
11839;SDS011;5979;50.800;4.904;2022-11-30T09:21:33;27.23;;;15.85;;
11839;SDS011;5979;50.800;4.904;2022-11-30T09:23:59;25.95;;;15.57;;
11839;SDS011;5979;50.800;4.904;2022-11-30T09:26:25;26.60;;;15.88;;
11839;SDS011;5979;50.800;4.904;2022-11-30T09:28:51;26.80;;;16.15;;
11839;SDS011;5979;50.800;4.904;2022-11-30T09:31:19;25.95;;;15.82;;
11839;SDS011;5979;50.800;4.904;2022-11-30T09:33:47;25.92;;;16.33;;
11839;SDS011;5979;50.800;4.904;2022-11-30T09:36:14;27.17;;;16.25;;
11839;SDS011;5979;50.800;4.904;2022-11-30T09:38:42;29.27;;;16.65;;
11839;SDS011;5979;50.800;4.904;2022-11-30T09:46:26;27.98;;;17.40;;
11839;SDS011;5979;50.800;4.904;2022-11-30T09:49:25;28.75;;;16.48;;
11839;SDS011;5979;50.800;4.904;2022-11-30T09:51:50;31.02;;;17.63;;
11839;SDS011;5979;50.800;4.904;2022-11-30T09:54:20;30.88;;;17.15;;
11839;SDS011;5979;50.800;4.904;2022-11-30T09:56:55;30.98;;;17.65;;
11839;SDS011;5979;50.800;4.904;2022-11-30T09:59:21;26.45;;;18.15;;
11839;SDS011;5979;50.800;4.904;2022-11-30T10:01:56;29.65;;;18.13;;
11839;SDS011;5979;50.800;4.904;2022-11-30T10:04:27;29.30;;;16.85;;
11839;SDS011;5979;50.800;4.904;2022-11-30T10:12:05;27.05;;;17.48;;
11839;SDS011;5979;50.800;4.904;2022-11-30T10:17:54;31.48;;;18.17;;
11839;SDS011;5979;50.800;4.904;2022-11-30T10:25:54;23.88;;;16.00;;
11839;SDS011;5979;50.800;4.904;2022-11-30T10:31:32;24.63;;;16.30;;
11839;SDS011;5979;50.800;4.904;2022-11-30T10:34:02;27.35;;;17.45;;
11839;SDS011;5979;50.800;4.904;2022-11-30T10:45:06;31.00;;;18.35;;
11839;SDS011;5979;50.800;4.904;2022-11-30T10:47:39;33.17;;;18.58;;
11839;SDS011;5979;50.800;4.904;2022-11-30T10:50:26;33.60;;;19.23;;
11839;SDS011;5979;50.800;4.904;2022-11-30T10:52:54;30.40;;;18.50;;
11839;SDS011;5979;50.800;4.904;2022-11-30T10:55:23;29.70;;;18.77;;
11839;SDS011;5979;50.800;4.904;2022-11-30T10:58:03;29.25;;;19.00;;
11839;SDS011;5979;50.800;4.904;2022-11-30T11:00:39;28.60;;;17.73;;
11839;SDS011;5979;50.800;4.904;2022-11-30T11:03:22;34.78;;;20.80;;
11839;SDS011;5979;50.800;4.904;2022-11-30T11:08:37;29.75;;;19.15;;
11839;SDS011;5979;50.800;4.904;2022-11-30T11:11:03;29.60;;;19.23;;
11839;SDS011;5979;50.800;4.904;2022-11-30T11:13:49;31.33;;;19.08;;
11839;SDS011;5979;50.800;4.904;2022-11-30T11:16:15;32.25;;;19.88;;
11839;SDS011;5979;50.800;4.904;2022-11-30T11:18:51;29.00;;;18.98;;
11839;SDS011;5979;50.800;4.904;2022-11-30T11:21:18;29.85;;;18.33;;
11839;SDS011;5979;50.800;4.904;2022-11-30T11:23:46;28.05;;;18.00;;
11839;SDS011;5979;50.800;4.904;2022-11-30T11:26:16;30.50;;;19.15;;
11839;SDS011;5979;50.800;4.904;2022-11-30T11:28:45;26.70;;;18.25;;
11839;SDS011;5979;50.800;4.904;2022-11-30T11:31:15;29.58;;;19.58;;
11839;SDS011;5979;50.800;4.904;2022-11-30T11:33:56;29.63;;;19.40;;
11839;SDS011;5979;50.800;4.904;2022-11-30T11:36:26;32.70;;;19.65;;
11839;SDS011;5979;50.800;4.904;2022-11-30T11:38:53;29.77;;;19.83;;
11839;SDS011;5979;50.800;4.904;2022-11-30T11:41:30;28.67;;;19.27;;
11839;SDS011;5979;50.800;4.904;2022-11-30T11:44:32;28.90;;;18.65;;
11839;SDS011;5979;50.800;4.904;2022-11-30T11:46:56;28.60;;;19.60;;
11839;SDS011;5979;50.800;4.904;2022-11-30T11:49:25;27.73;;;18.95;;
11839;SDS011;5979;50.800;4.904;2022-11-30T11:52:03;35.45;;;20.20;;
11839;SDS011;5979;50.800;4.904;2022-11-30T11:54:42;29.67;;;19.35;;
11839;SDS011;5979;50.800;4.904;2022-11-30T11:57:14;33.83;;;19.27;;
11839;SDS011;5979;50.800;4.904;2022-11-30T11:59:54;35.83;;;21.10;;
11839;SDS011;5979;50.800;4.904;2022-11-30T12:05:15;31.80;;;19.88;;
11839;SDS011;5979;50.800;4.904;2022-11-30T12:10:38;28.92;;;19.23;;
11839;SDS011;5979;50.800;4.904;2022-11-30T12:13:15;34.90;;;21.67;;
11839;SDS011;5979;50.800;4.904;2022-11-30T12:15:47;30.20;;;19.73;;
11839;SDS011;5979;50.800;4.904;2022-11-30T12:18:18;31.23;;;20.35;;
11839;SDS011;5979;50.800;4.904;2022-11-30T12:29:26;32.95;;;19.40;;
11839;SDS011;5979;50.800;4.904;2022-11-30T12:37:42;28.95;;;18.95;;
11839;SDS011;5979;50.800;4.904;2022-11-30T12:40:25;29.92;;;19.73;;
11839;SDS011;5979;50.800;4.904;2022-11-30T12:46:05;32.45;;;20.13;;
11839;SDS011;5979;50.800;4.904;2022-11-30T12:54:38;33.15;;;20.08;;
11839;SDS011;5979;50.800;4.904;2022-11-30T12:57:28;31.83;;;19.40;;
11839;SDS011;5979;50.800;4.904;2022-11-30T13:05:15;35.17;;;20.08;;
11839;SDS011;5979;50.800;4.904;2022-11-30T13:10:56;31.02;;;19.65;;
11839;SDS011;5979;50.800;4.904;2022-11-30T13:13:28;32.42;;;20.55;;
11839;SDS011;5979;50.800;4.904;2022-11-30T13:15:55;31.08;;;19.88;;
11839;SDS011;5979;50.800;4.904;2022-11-30T13:18:22;33.95;;;20.55;;
11839;SDS011;5979;50.800;4.904;2022-11-30T13:23:34;33.20;;;20.70;;
11839;SDS011;5979;50.800;4.904;2022-11-30T13:29:30;30.40;;;20.63;;
11839;SDS011;5979;50.800;4.904;2022-11-30T13:32:31;34.60;;;20.95;;
11839;SDS011;5979;50.800;4.904;2022-11-30T13:40:57;35.08;;;22.13;;
11839;SDS011;5979;50.800;4.904;2022-11-30T13:43:33;32.47;;;20.75;;
11839;SDS011;5979;50.800;4.904;2022-11-30T13:46:19;32.83;;;21.13;;
11839;SDS011;5979;50.800;4.904;2022-11-30T13:48:47;36.80;;;21.20;;
11839;SDS011;5979;50.800;4.904;2022-11-30T13:51:33;35.38;;;20.27;;
11839;SDS011;5979;50.800;4.904;2022-11-30T13:54:46;31.10;;;19.90;;
11839;SDS011;5979;50.800;4.904;2022-11-30T13:59:52;39.30;;;21.05;;
11839;SDS011;5979;50.800;4.904;2022-11-30T14:07:45;33.90;;;19.92;;
11839;SDS011;5979;50.800;4.904;2022-11-30T14:13:02;32.65;;;20.27;;
11839;SDS011;5979;50.800;4.904;2022-11-30T14:18:04;32.42;;;20.60;;
11839;SDS011;5979;50.800;4.904;2022-11-30T14:23:18;34.03;;;19.73;;
11839;SDS011;5979;50.800;4.904;2022-11-30T14:25:51;33.78;;;21.33;;
11839;SDS011;5979;50.800;4.904;2022-11-30T14:28:20;35.13;;;21.40;;
11839;SDS011;5979;50.800;4.904;2022-11-30T14:30:49;34.70;;;20.98;;
11839;SDS011;5979;50.800;4.904;2022-11-30T14:33:19;31.63;;;20.88;;
11839;SDS011;5979;50.800;4.904;2022-11-30T14:35:51;32.72;;;20.60;;
11839;SDS011;5979;50.800;4.904;2022-11-30T14:38:24;33.25;;;20.20;;
11839;SDS011;5979;50.800;4.904;2022-11-30T14:40:57;36.53;;;19.92;;
11839;SDS011;5979;50.800;4.904;2022-11-30T14:43:23;34.63;;;20.73;;
11839;SDS011;5979;50.800;4.904;2022-11-30T14:45:56;34.50;;;20.17;;
11839;SDS011;5979;50.800;4.904;2022-11-30T14:48:30;31.08;;;20.08;;
11839;SDS011;5979;50.800;4.904;2022-11-30T14:50:56;31.58;;;20.02;;
11839;SDS011;5979;50.800;4.904;2022-11-30T14:56:23;33.30;;;20.10;;
11839;SDS011;5979;50.800;4.904;2022-11-30T14:59:17;32.80;;;20.52;;
11839;SDS011;5979;50.800;4.904;2022-11-30T15:01:48;32.08;;;19.77;;
11839;SDS011;5979;50.800;4.904;2022-11-30T15:04:27;31.58;;;19.90;;
11839;SDS011;5979;50.800;4.904;2022-11-30T15:06:54;36.97;;;21.30;;
11839;SDS011;5979;50.800;4.904;2022-11-30T15:09:23;35.58;;;20.73;;
11839;SDS011;5979;50.800;4.904;2022-11-30T15:11:52;38.00;;;21.60;;
11839;SDS011;5979;50.800;4.904;2022-11-30T15:14:18;35.75;;;20.95;;
11839;SDS011;5979;50.800;4.904;2022-11-30T15:16:48;32.83;;;20.88;;
11839;SDS011;5979;50.800;4.904;2022-11-30T15:19:23;32.28;;;20.33;;
11839;SDS011;5979;50.800;4.904;2022-11-30T15:21:51;36.92;;;21.73;;
11839;SDS011;5979;50.800;4.904;2022-11-30T15:24:18;34.83;;;21.13;;
11839;SDS011;5979;50.800;4.904;2022-11-30T15:29:14;36.47;;;20.75;;
11839;SDS011;5979;50.800;4.904;2022-11-30T15:31:47;34.47;;;21.02;;
11839;SDS011;5979;50.800;4.904;2022-11-30T15:34:18;35.47;;;21.38;;
11839;SDS011;5979;50.800;4.904;2022-11-30T15:36:54;34.75;;;21.02;;
11839;SDS011;5979;50.800;4.904;2022-11-30T15:39:21;32.55;;;21.05;;
11839;SDS011;5979;50.800;4.904;2022-11-30T15:41:55;35.88;;;21.05;;
11839;SDS011;5979;50.800;4.904;2022-11-30T15:44:36;30.90;;;19.27;;
11839;SDS011;5979;50.800;4.904;2022-11-30T15:47:30;30.85;;;19.50;;
11839;SDS011;5979;50.800;4.904;2022-11-30T15:50:00;33.05;;;19.73;;
11839;SDS011;5979;50.800;4.904;2022-11-30T15:52:27;33.80;;;20.45;;
11839;SDS011;5979;50.800;4.904;2022-11-30T15:54:55;32.33;;;20.70;;
11839;SDS011;5979;50.800;4.904;2022-11-30T15:57:23;35.55;;;20.95;;
11839;SDS011;5979;50.800;4.904;2022-11-30T16:02:37;30.60;;;20.13;;
11839;SDS011;5979;50.800;4.904;2022-11-30T16:07:37;32.60;;;20.73;;
11839;SDS011;5979;50.800;4.904;2022-11-30T16:13:02;35.47;;;21.25;;
11839;SDS011;5979;50.800;4.904;2022-11-30T16:15:30;35.47;;;21.30;;
11839;SDS011;5979;50.800;4.904;2022-11-30T16:18:11;35.58;;;21.42;;
11839;SDS011;5979;50.800;4.904;2022-11-30T16:20:39;32.33;;;20.52;;
11839;SDS011;5979;50.800;4.904;2022-11-30T16:23:07;35.25;;;21.95;;
11839;SDS011;5979;50.800;4.904;2022-11-30T16:25:39;37.90;;;22.70;;
11839;SDS011;5979;50.800;4.904;2022-11-30T16:28:09;36.70;;;22.15;;
11839;SDS011;5979;50.800;4.904;2022-11-30T16:30:36;37.70;;;22.55;;
11839;SDS011;5979;50.800;4.904;2022-11-30T16:33:02;33.78;;;20.88;;
11839;SDS011;5979;50.800;4.904;2022-11-30T16:36:14;36.53;;;23.15;;
11839;SDS011;5979;50.800;4.904;2022-11-30T16:38:14;38.80;;;22.92;;
11839;SDS011;5979;50.800;4.904;2022-11-30T16:40:39;35.38;;;22.15;;
11839;SDS011;5979;50.800;4.904;2022-11-30T16:43:05;39.25;;;23.02;;
11839;SDS011;5979;50.800;4.904;2022-11-30T16:45:34;38.17;;;22.50;;